sensor_id;sensor_type;location;lat;lon;timestamp;P1;durP1;ratioP1;P2;durP2;ratioP2
3541;SDS011;1785;47.388;8.538;2023-09-12T00:01:30;13.33;;;12.03;;
3541;SDS011;1785;47.388;8.538;2023-09-12T00:03:57;13.93;;;12.57;;
3541;SDS011;1785;47.388;8.538;2023-09-12T00:06:23;14.07;;;12.73;;
3541;SDS011;1785;47.388;8.538;2023-09-12T00:08:50;13.77;;;12.47;;
3541;SDS011;1785;47.388;8.538;2023-09-12T00:11:17;16.10;;;14.43;;
3541;SDS011;1785;47.388;8.538;2023-09-12T00:13:43;15.10;;;13.80;;
3541;SDS011;1785;47.388;8.538;2023-09-12T00:16:10;18.50;;;14.00;;
3541;SDS011;1785;47.388;8.538;2023-09-12T00:18:36;16.60;;;14.63;;
3541;SDS011;1785;47.388;8.538;2023-09-12T00:21:03;17.20;;;15.37;;
3541;SDS011;1785;47.388;8.538;2023-09-12T00:23:29;18.53;;;16.47;;
3541;SDS011;1785;47.388;8.538;2023-09-12T00:25:56;18.63;;;16.50;;
3541;SDS011;1785;47.388;8.538;2023-09-12T00:28:22;17.20;;;15.50;;
3541;SDS011;1785;47.388;8.538;2023-09-12T00:30:48;20.77;;;14.70;;
3541;SDS011;1785;47.388;8.538;2023-09-12T00:33:15;17.77;;;15.97;;
3541;SDS011;1785;47.388;8.538;2023-09-12T00:35:41;16.67;;;14.80;;
3541;SDS011;1785;47.388;8.538;2023-09-12T00:38:09;18.47;;;16.67;;
3541;SDS011;1785;47.388;8.538;2023-09-12T00:40:35;18.73;;;16.47;;
3541;SDS011;1785;47.388;8.538;2023-09-12T00:43:02;17.00;;;15.40;;
3541;SDS011;1785;47.388;8.538;2023-09-12T00:45:28;17.23;;;15.70;;
3541;SDS011;1785;47.388;8.538;2023-09-12T00:47:55;16.00;;;14.40;;
3541;SDS011;1785;47.388;8.538;2023-09-12T00:50:23;17.80;;;16.10;;
3541;SDS011;1785;47.388;8.538;2023-09-12T00:52:51;18.07;;;16.17;;
3541;SDS011;1785;47.388;8.538;2023-09-12T00:55:19;18.83;;;16.83;;
3541;SDS011;1785;47.388;8.538;2023-09-12T00:57:45;17.03;;;15.33;;
3541;SDS011;1785;47.388;8.538;2023-09-12T01:00:13;16.70;;;15.20;;
3541;SDS011;1785;47.388;8.538;2023-09-12T01:02:41;18.13;;;16.23;;
3541;SDS011;1785;47.388;8.538;2023-09-12T01:05:09;15.53;;;14.17;;
3541;SDS011;1785;47.388;8.538;2023-09-12T01:07:36;16.87;;;15.27;;
3541;SDS011;1785;47.388;8.538;2023-09-12T01:10:05;17.30;;;15.70;;
3541;SDS011;1785;47.388;8.538;2023-09-12T01:12:32;17.10;;;15.57;;
3541;SDS011;1785;47.388;8.538;2023-09-12T01:14:58;16.83;;;15.40;;
3541;SDS011;1785;47.388;8.538;2023-09-12T01:17:24;15.80;;;14.30;;
3541;SDS011;1785;47.388;8.538;2023-09-12T01:19:51;20.60;;;14.50;;
3541;SDS011;1785;47.388;8.538;2023-09-12T01:22:23;15.73;;;14.37;;
3541;SDS011;1785;47.388;8.538;2023-09-12T01:28:07;16.93;;;15.17;;
3541;SDS011;1785;47.388;8.538;2023-09-12T01:30:35;17.20;;;15.50;;
3541;SDS011;1785;47.388;8.538;2023-09-12T01:33:03;18.10;;;16.30;;
3541;SDS011;1785;47.388;8.538;2023-09-12T01:35:29;17.30;;;14.90;;
3541;SDS011;1785;47.388;8.538;2023-09-12T01:37:55;15.90;;;14.50;;
3541;SDS011;1785;47.388;8.538;2023-09-12T01:40:24;17.37;;;15.87;;
3541;SDS011;1785;47.388;8.538;2023-09-12T01:42:58;16.50;;;15.10;;
3541;SDS011;1785;47.388;8.538;2023-09-12T01:45:26;16.73;;;15.23;;
3541;SDS011;1785;47.388;8.538;2023-09-12T01:47:55;17.87;;;16.27;;
3541;SDS011;1785;47.388;8.538;2023-09-12T01:50:23;16.97;;;15.47;;
3541;SDS011;1785;47.388;8.538;2023-09-12T01:52:52;16.70;;;15.20;;
3541;SDS011;1785;47.388;8.538;2023-09-12T01:55:20;17.20;;;15.50;;
3541;SDS011;1785;47.388;8.538;2023-09-12T01:57:47;16.70;;;15.03;;
3541;SDS011;1785;47.388;8.538;2023-09-12T02:00:14;16.93;;;15.13;;
3541;SDS011;1785;47.388;8.538;2023-09-12T02:02:43;18.93;;;17.00;;
3541;SDS011;1785;47.388;8.538;2023-09-12T02:05:11;17.33;;;15.57;;
3541;SDS011;1785;47.388;8.538;2023-09-12T02:07:41;18.10;;;16.30;;
3541;SDS011;1785;47.388;8.538;2023-09-12T02:10:08;17.00;;;15.60;;
3541;SDS011;1785;47.388;8.538;2023-09-12T02:12:35;18.33;;;16.60;;
3541;SDS011;1785;47.388;8.538;2023-09-12T02:15:01;17.70;;;15.80;;
3541;SDS011;1785;47.388;8.538;2023-09-12T02:17:27;16.73;;;15.00;;
3541;SDS011;1785;47.388;8.538;2023-09-12T02:19:54;16.20;;;14.70;;
3541;SDS011;1785;47.388;8.538;2023-09-12T02:22:20;19.30;;;16.70;;
3541;SDS011;1785;47.388;8.538;2023-09-12T02:24:46;17.37;;;15.77;;
3541;SDS011;1785;47.388;8.538;2023-09-12T02:27:12;16.77;;;14.97;;
3541;SDS011;1785;47.388;8.538;2023-09-12T02:29:38;17.47;;;15.70;;
3541;SDS011;1785;47.388;8.538;2023-09-12T02:32:05;15.43;;;14.03;;
3541;SDS011;1785;47.388;8.538;2023-09-12T02:34:32;17.50;;;15.70;;
3541;SDS011;1785;47.388;8.538;2023-09-12T02:36:59;16.30;;;14.83;;
3541;SDS011;1785;47.388;8.538;2023-09-12T02:39:25;16.27;;;14.67;;
3541;SDS011;1785;47.388;8.538;2023-09-12T02:41:52;16.00;;;14.60;;
3541;SDS011;1785;47.388;8.538;2023-09-12T02:44:18;17.20;;;15.57;;
3541;SDS011;1785;47.388;8.538;2023-09-12T02:46:44;17.50;;;15.37;;
3541;SDS011;1785;47.388;8.538;2023-09-12T02:49:11;17.87;;;15.60;;
3541;SDS011;1785;47.388;8.538;2023-09-12T02:51:38;17.43;;;15.73;;
3541;SDS011;1785;47.388;8.538;2023-09-12T02:54:05;17.23;;;13.90;;
3541;SDS011;1785;47.388;8.538;2023-09-12T02:56:31;16.10;;;14.60;;
3541;SDS011;1785;47.388;8.538;2023-09-12T02:58:57;17.97;;;16.17;;
3541;SDS011;1785;47.388;8.538;2023-09-12T03:01:23;17.13;;;15.43;;
3541;SDS011;1785;47.388;8.538;2023-09-12T03:03:52;17.50;;;15.70;;
3541;SDS011;1785;47.388;8.538;2023-09-12T03:06:19;17.87;;;16.17;;
3541;SDS011;1785;47.388;8.538;2023-09-12T03:08:45;16.43;;;14.83;;
3541;SDS011;1785;47.388;8.538;2023-09-12T03:11:13;17.00;;;15.05;;
3541;SDS011;1785;47.388;8.538;2023-09-12T03:13:39;16.50;;;14.93;;
3541;SDS011;1785;47.388;8.538;2023-09-12T03:16:09;16.97;;;15.43;;
3541;SDS011;1785;47.388;8.538;2023-09-12T03:18:35;18.90;;;17.10;;
3541;SDS011;1785;47.388;8.538;2023-09-12T03:21:01;17.40;;;15.80;;
3541;SDS011;1785;47.388;8.538;2023-09-12T03:23:27;17.50;;;15.80;;
3541;SDS011;1785;47.388;8.538;2023-09-12T03:25:53;17.17;;;15.67;;
3541;SDS011;1785;47.388;8.538;2023-09-12T03:28:20;16.90;;;15.20;;
3541;SDS011;1785;47.388;8.538;2023-09-12T03:30:46;17.03;;;14.40;;
3541;SDS011;1785;47.388;8.538;2023-09-12T03:33:12;18.47;;;16.20;;
3541;SDS011;1785;47.388;8.538;2023-09-12T03:35:39;17.00;;;15.23;;
3541;SDS011;1785;47.388;8.538;2023-09-12T03:38:05;16.93;;;15.43;;
3541;SDS011;1785;47.388;8.538;2023-09-12T03:40:31;16.70;;;15.20;;
3541;SDS011;1785;47.388;8.538;2023-09-12T03:42:58;17.60;;;15.80;;
3541;SDS011;1785;47.388;8.538;2023-09-12T03:45:25;16.83;;;15.23;;
3541;SDS011;1785;47.388;8.538;2023-09-12T03:47:51;18.00;;;16.30;;
3541;SDS011;1785;47.388;8.538;2023-09-12T03:50:17;18.30;;;16.50;;
3541;SDS011;1785;47.388;8.538;2023-09-12T03:52:43;17.90;;;15.67;;
3541;SDS011;1785;47.388;8.538;2023-09-12T03:55:09;16.97;;;15.23;;
3541;SDS011;1785;47.388;8.538;2023-09-12T03:57:35;17.80;;;16.10;;
3541;SDS011;1785;47.388;8.538;2023-09-12T04:00:01;16.63;;;15.03;;
3541;SDS011;1785;47.388;8.538;2023-09-12T04:02:31;16.80;;;15.00;;
3541;SDS011;1785;47.388;8.538;2023-09-12T04:04:57;16.57;;;14.97;;
3541;SDS011;1785;47.388;8.538;2023-09-12T04:07:24;17.00;;;15.30;;
3541;SDS011;1785;47.388;8.538;2023-09-12T04:09:50;17.43;;;15.47;;
3541;SDS011;1785;47.388;8.538;2023-09-12T04:12:16;16.57;;;15.10;;
3541;SDS011;1785;47.388;8.538;2023-09-12T04:14:42;17.87;;;16.07;;
3541;SDS011;1785;47.388;8.538;2023-09-12T04:17:09;19.07;;;17.17;;
3541;SDS011;1785;47.388;8.538;2023-09-12T04:19:35;18.50;;;16.80;;
3541;SDS011;1785;47.388;8.538;2023-09-12T04:22:01;18.70;;;16.80;;
3541;SDS011;1785;47.388;8.538;2023-09-12T04:24:29;18.63;;;16.73;;
3541;SDS011;1785;47.388;8.538;2023-09-12T04:26:55;16.60;;;14.73;;
3541;SDS011;1785;47.388;8.538;2023-09-12T04:29:21;18.47;;;16.67;;
3541;SDS011;1785;47.388;8.538;2023-09-12T04:31:47;18.50;;;16.77;;
3541;SDS011;1785;47.388;8.538;2023-09-12T04:34:13;18.33;;;16.63;;
3541;SDS011;1785;47.388;8.538;2023-09-12T04:36:40;16.93;;;15.23;;
3541;SDS011;1785;47.388;8.538;2023-09-12T04:39:06;16.10;;;14.40;;
3541;SDS011;1785;47.388;8.538;2023-09-12T04:41:33;17.50;;;15.80;;
3541;SDS011;1785;47.388;8.538;2023-09-12T04:43:59;17.83;;;16.23;;
3541;SDS011;1785;47.388;8.538;2023-09-12T04:46:27;16.80;;;15.20;;
3541;SDS011;1785;47.388;8.538;2023-09-12T04:48:53;17.97;;;15.80;;
3541;SDS011;1785;47.388;8.538;2023-09-12T04:51:19;18.03;;;14.60;;
3541;SDS011;1785;47.388;8.538;2023-09-12T04:53:46;16.08;;;14.68;;
3541;SDS011;1785;47.388;8.538;2023-09-12T04:56:16;15.47;;;14.17;;
3541;SDS011;1785;47.388;8.538;2023-09-12T04:58:42;15.60;;;14.03;;
3541;SDS011;1785;47.388;8.538;2023-09-12T05:01:08;16.30;;;14.10;;
3541;SDS011;1785;47.388;8.538;2023-09-12T05:03:35;15.27;;;13.50;;
3541;SDS011;1785;47.388;8.538;2023-09-12T05:06:01;16.47;;;14.87;;
3541;SDS011;1785;47.388;8.538;2023-09-12T05:08:28;17.30;;;13.43;;
3541;SDS011;1785;47.388;8.538;2023-09-12T05:10:55;15.67;;;14.10;;
3541;SDS011;1785;47.388;8.538;2023-09-12T05:13:21;20.70;;;14.53;;
3541;SDS011;1785;47.388;8.538;2023-09-12T05:15:47;17.97;;;14.50;;
3541;SDS011;1785;47.388;8.538;2023-09-12T05:18:13;14.00;;;12.80;;
3541;SDS011;1785;47.388;8.538;2023-09-12T05:20:39;15.57;;;14.07;;
3541;SDS011;1785;47.388;8.538;2023-09-12T05:23:05;15.50;;;13.97;;
3541;SDS011;1785;47.388;8.538;2023-09-12T05:25:32;14.97;;;13.47;;
3541;SDS011;1785;47.388;8.538;2023-09-12T05:27:58;16.60;;;15.10;;
3541;SDS011;1785;47.388;8.538;2023-09-12T05:30:24;16.30;;;14.60;;
3541;SDS011;1785;47.388;8.538;2023-09-12T05:32:51;15.43;;;13.93;;
3541;SDS011;1785;47.388;8.538;2023-09-12T05:35:17;17.60;;;15.80;;
3541;SDS011;1785;47.388;8.538;2023-09-12T05:37:43;16.77;;;15.27;;
3541;SDS011;1785;47.388;8.538;2023-09-12T05:40:10;17.40;;;15.60;;
3541;SDS011;1785;47.388;8.538;2023-09-12T05:42:36;14.87;;;13.33;;
3541;SDS011;1785;47.388;8.538;2023-09-12T05:45:03;23.63;;;17.17;;
3541;SDS011;1785;47.388;8.538;2023-09-12T05:47:29;17.93;;;15.93;;
3541;SDS011;1785;47.388;8.538;2023-09-12T05:49:56;17.70;;;16.03;;
3541;SDS011;1785;47.388;8.538;2023-09-12T05:52:24;18.40;;;16.67;;
3541;SDS011;1785;47.388;8.538;2023-09-12T05:54:50;16.67;;;15.13;;
3541;SDS011;1785;47.388;8.538;2023-09-12T05:57:16;18.70;;;16.90;;
3541;SDS011;1785;47.388;8.538;2023-09-12T05:59:42;19.77;;;17.87;;
3541;SDS011;1785;47.388;8.538;2023-09-12T06:02:09;18.77;;;16.17;;
3541;SDS011;1785;47.388;8.538;2023-09-12T06:04:35;28.23;;;18.17;;
3541;SDS011;1785;47.388;8.538;2023-09-12T06:07:02;17.53;;;15.73;;
3541;SDS011;1785;47.388;8.538;2023-09-12T06:09:28;19.13;;;17.10;;
3541;SDS011;1785;47.388;8.538;2023-09-12T06:11:54;18.90;;;16.27;;
3541;SDS011;1785;47.388;8.538;2023-09-12T06:14:20;19.87;;;17.60;;
3541;SDS011;1785;47.388;8.538;2023-09-12T06:16:46;23.10;;;18.87;;
3541;SDS011;1785;47.388;8.538;2023-09-12T06:19:13;21.60;;;19.50;;
3541;SDS011;1785;47.388;8.538;2023-09-12T06:21:39;19.40;;;16.43;;
3541;SDS011;1785;47.388;8.538;2023-09-12T06:24:10;19.80;;;17.70;;
3541;SDS011;1785;47.388;8.538;2023-09-12T06:26:37;22.10;;;18.87;;
3541;SDS011;1785;47.388;8.538;2023-09-12T06:29:04;20.87;;;18.90;;
3541;SDS011;1785;47.388;8.538;2023-09-12T06:31:30;19.00;;;17.20;;
3541;SDS011;1785;47.388;8.538;2023-09-12T06:33:56;23.90;;;19.10;;
3541;SDS011;1785;47.388;8.538;2023-09-12T06:36:23;20.00;;;17.80;;
3541;SDS011;1785;47.388;8.538;2023-09-12T06:38:50;17.87;;;16.00;;
3541;SDS011;1785;47.388;8.538;2023-09-12T06:41:18;21.63;;;19.00;;
3541;SDS011;1785;47.388;8.538;2023-09-12T06:43:44;22.50;;;18.97;;
3541;SDS011;1785;47.388;8.538;2023-09-12T06:46:10;21.80;;;17.20;;
3541;SDS011;1785;47.388;8.538;2023-09-12T06:48:36;20.43;;;17.90;;
3541;SDS011;1785;47.388;8.538;2023-09-12T06:51:04;19.97;;;17.83;;
3541;SDS011;1785;47.388;8.538;2023-09-12T06:53:32;24.30;;;19.27;;
3541;SDS011;1785;47.388;8.538;2023-09-12T06:55:58;18.27;;;16.40;;
3541;SDS011;1785;47.388;8.538;2023-09-12T06:58:24;20.63;;;18.03;;
3541;SDS011;1785;47.388;8.538;2023-09-12T07:00:50;19.90;;;18.10;;
3541;SDS011;1785;47.388;8.538;2023-09-12T07:03:16;18.77;;;16.77;;
3541;SDS011;1785;47.388;8.538;2023-09-12T07:05:43;21.30;;;19.20;;
3541;SDS011;1785;47.388;8.538;2023-09-12T07:08:09;22.63;;;20.20;;
3541;SDS011;1785;47.388;8.538;2023-09-12T07:10:37;22.87;;;18.30;;
3541;SDS011;1785;47.388;8.538;2023-09-12T07:13:03;18.97;;;16.97;;
3541;SDS011;1785;47.388;8.538;2023-09-12T07:15:29;20.33;;;17.30;;
3541;SDS011;1785;47.388;8.538;2023-09-12T07:17:55;18.83;;;16.77;;
3541;SDS011;1785;47.388;8.538;2023-09-12T07:20:21;22.00;;;17.83;;
3541;SDS011;1785;47.388;8.538;2023-09-12T07:22:48;20.57;;;17.70;;
3541;SDS011;1785;47.388;8.538;2023-09-12T07:25:14;23.53;;;18.07;;
3541;SDS011;1785;47.388;8.538;2023-09-12T07:27:42;19.70;;;17.20;;
3541;SDS011;1785;47.388;8.538;2023-09-12T07:30:08;17.33;;;15.52;;
3541;SDS011;1785;47.388;8.538;2023-09-12T07:32:35;18.47;;;16.57;;
3541;SDS011;1785;47.388;8.538;2023-09-12T07:35:01;14.23;;;12.67;;
3541;SDS011;1785;47.388;8.538;2023-09-12T07:37:27;16.30;;;14.80;;
3541;SDS011;1785;47.388;8.538;2023-09-12T07:39:53;16.13;;;14.50;;
3541;SDS011;1785;47.388;8.538;2023-09-12T07:42:23;14.37;;;12.87;;
3541;SDS011;1785;47.388;8.538;2023-09-12T07:44:50;16.30;;;14.70;;
3541;SDS011;1785;47.388;8.538;2023-09-12T07:47:16;13.80;;;12.50;;
3541;SDS011;1785;47.388;8.538;2023-09-12T07:49:42;14.43;;;12.53;;
3541;SDS011;1785;47.388;8.538;2023-09-12T07:52:08;13.77;;;12.57;;
3541;SDS011;1785;47.388;8.538;2023-09-12T07:54:34;15.27;;;13.73;;
3541;SDS011;1785;47.388;8.538;2023-09-12T07:57:02;14.00;;;12.70;;
3541;SDS011;1785;47.388;8.538;2023-09-12T07:59:28;13.23;;;12.00;;
3541;SDS011;1785;47.388;8.538;2023-09-12T08:01:55;14.60;;;13.20;;
3541;SDS011;1785;47.388;8.538;2023-09-12T08:04:21;14.18;;;12.80;;
3541;SDS011;1785;47.388;8.538;2023-09-12T08:06:47;15.93;;;12.87;;
3541;SDS011;1785;47.388;8.538;2023-09-12T08:09:13;14.67;;;13.27;;
3541;SDS011;1785;47.388;8.538;2023-09-12T08:11:39;14.20;;;12.00;;
3541;SDS011;1785;47.388;8.538;2023-09-12T08:14:05;13.80;;;12.33;;
3541;SDS011;1785;47.388;8.538;2023-09-12T08:16:31;14.20;;;12.90;;
3541;SDS011;1785;47.388;8.538;2023-09-12T08:18:58;14.17;;;12.97;;
3541;SDS011;1785;47.388;8.538;2023-09-12T08:21:24;14.60;;;12.60;;
3541;SDS011;1785;47.388;8.538;2023-09-12T08:23:50;14.87;;;13.33;;
3541;SDS011;1785;47.388;8.538;2023-09-12T08:26:16;13.40;;;12.20;;
3541;SDS011;1785;47.388;8.538;2023-09-12T08:28:42;18.90;;;13.97;;
3541;SDS011;1785;47.388;8.538;2023-09-12T08:31:08;14.20;;;12.77;;
3541;SDS011;1785;47.388;8.538;2023-09-12T08:33:34;14.10;;;12.73;;
3541;SDS011;1785;47.388;8.538;2023-09-12T08:36:01;13.73;;;12.43;;
3541;SDS011;1785;47.388;8.538;2023-09-12T08:38:27;15.60;;;14.03;;
3541;SDS011;1785;47.388;8.538;2023-09-12T08:40:53;15.10;;;13.70;;
3541;SDS011;1785;47.388;8.538;2023-09-12T08:43:20;13.47;;;12.00;;
3541;SDS011;1785;47.388;8.538;2023-09-12T08:45:46;16.63;;;12.90;;
3541;SDS011;1785;47.388;8.538;2023-09-12T08:48:12;14.00;;;12.60;;
3541;SDS011;1785;47.388;8.538;2023-09-12T08:50:40;13.00;;;11.73;;
3541;SDS011;1785;47.388;8.538;2023-09-12T08:53:07;13.83;;;12.63;;
3541;SDS011;1785;47.388;8.538;2023-09-12T08:55:34;15.93;;;11.40;;
3541;SDS011;1785;47.388;8.538;2023-09-12T08:58:01;13.90;;;12.50;;
3541;SDS011;1785;47.388;8.538;2023-09-12T09:00:28;15.13;;;13.63;;
3541;SDS011;1785;47.388;8.538;2023-09-12T09:02:55;17.60;;;13.87;;
3541;SDS011;1785;47.388;8.538;2023-09-12T09:05:21;14.17;;;12.97;;
3541;SDS011;1785;47.388;8.538;2023-09-12T09:07:49;15.00;;;12.80;;
3541;SDS011;1785;47.388;8.538;2023-09-12T09:10:17;13.00;;;11.80;;
3541;SDS011;1785;47.388;8.538;2023-09-12T09:12:45;13.43;;;12.23;;
3541;SDS011;1785;47.388;8.538;2023-09-12T09:15:21;14.20;;;12.90;;
3541;SDS011;1785;47.388;8.538;2023-09-12T09:17:51;14.17;;;12.90;;
3541;SDS011;1785;47.388;8.538;2023-09-12T09:20:21;12.80;;;11.70;;
3541;SDS011;1785;47.388;8.538;2023-09-12T09:22:56;17.10;;;11.10;;
3541;SDS011;1785;47.388;8.538;2023-09-12T09:25:25;13.17;;;11.87;;
3541;SDS011;1785;47.388;8.538;2023-09-12T09:27:51;13.47;;;11.80;;
3541;SDS011;1785;47.388;8.538;2023-09-12T09:30:17;13.13;;;11.80;;
3541;SDS011;1785;47.388;8.538;2023-09-12T09:32:45;13.37;;;11.77;;
3541;SDS011;1785;47.388;8.538;2023-09-12T09:35:13;12.80;;;11.53;;
3541;SDS011;1785;47.388;8.538;2023-09-12T09:37:41;13.10;;;12.00;;
3541;SDS011;1785;47.388;8.538;2023-09-12T09:40:07;12.53;;;11.33;;
3541;SDS011;1785;47.388;8.538;2023-09-12T09:42:36;12.20;;;11.10;;
3541;SDS011;1785;47.388;8.538;2023-09-12T09:45:10;12.53;;;11.30;;
3541;SDS011;1785;47.388;8.538;2023-09-12T09:47:36;14.23;;;12.30;;
3541;SDS011;1785;47.388;8.538;2023-09-12T09:50:03;13.43;;;11.30;;
3541;SDS011;1785;47.388;8.538;2023-09-12T09:52:29;12.87;;;11.67;;
3541;SDS011;1785;47.388;8.538;2023-09-12T09:54:55;13.20;;;11.83;;
3541;SDS011;1785;47.388;8.538;2023-09-12T09:57:21;14.00;;;12.67;;
3541;SDS011;1785;47.388;8.538;2023-09-12T09:59:52;13.70;;;12.30;;
3541;SDS011;1785;47.388;8.538;2023-09-12T10:02:19;12.90;;;11.80;;
3541;SDS011;1785;47.388;8.538;2023-09-12T10:04:51;12.32;;;11.13;;
3541;SDS011;1785;47.388;8.538;2023-09-12T10:07:19;11.40;;;10.30;;
3541;SDS011;1785;47.388;8.538;2023-09-12T10:09:46;22.13;;;11.07;;
3541;SDS011;1785;47.388;8.538;2023-09-12T10:12:12;12.87;;;11.63;;
3541;SDS011;1785;47.388;8.538;2023-09-12T10:14:39;11.60;;;10.60;;
3541;SDS011;1785;47.388;8.538;2023-09-12T10:17:08;11.50;;;10.37;;
3541;SDS011;1785;47.388;8.538;2023-09-12T10:19:42;11.93;;;10.80;;
3541;SDS011;1785;47.388;8.538;2023-09-12T10:22:17;13.77;;;12.40;;
3541;SDS011;1785;47.388;8.538;2023-09-12T10:24:46;12.63;;;11.40;;
3541;SDS011;1785;47.388;8.538;2023-09-12T10:27:14;12.53;;;11.33;;
3541;SDS011;1785;47.388;8.538;2023-09-12T10:29:41;11.90;;;10.80;;
3541;SDS011;1785;47.388;8.538;2023-09-12T10:32:13;12.27;;;11.07;;
3541;SDS011;1785;47.388;8.538;2023-09-12T10:34:40;12.70;;;11.40;;
3541;SDS011;1785;47.388;8.538;2023-09-12T10:37:10;12.43;;;11.33;;
3541;SDS011;1785;47.388;8.538;2023-09-12T10:39:40;12.23;;;11.00;;
3541;SDS011;1785;47.388;8.538;2023-09-12T10:42:08;13.73;;;10.80;;
3541;SDS011;1785;47.388;8.538;2023-09-12T10:44:34;12.23;;;11.00;;
3541;SDS011;1785;47.388;8.538;2023-09-12T10:47:01;15.03;;;11.37;;
3541;SDS011;1785;47.388;8.538;2023-09-12T10:49:30;15.93;;;11.20;;
3541;SDS011;1785;47.388;8.538;2023-09-12T10:51:56;13.20;;;11.90;;
3541;SDS011;1785;47.388;8.538;2023-09-12T10:54:23;11.77;;;10.68;;
3541;SDS011;1785;47.388;8.538;2023-09-12T10:57:01;12.13;;;10.80;;
3541;SDS011;1785;47.388;8.538;2023-09-12T10:59:28;11.23;;;10.17;;
3541;SDS011;1785;47.388;8.538;2023-09-12T11:01:57;11.60;;;10.60;;
3541;SDS011;1785;47.388;8.538;2023-09-12T11:04:54;12.57;;;10.47;;
3541;SDS011;1785;47.388;8.538;2023-09-12T11:07:30;12.10;;;10.90;;
3541;SDS011;1785;47.388;8.538;2023-09-12T11:10:15;12.80;;;10.70;;
3541;SDS011;1785;47.388;8.538;2023-09-12T11:12:45;12.13;;;10.27;;
3541;SDS011;1785;47.388;8.538;2023-09-12T11:15:12;12.10;;;10.90;;
3541;SDS011;1785;47.388;8.538;2023-09-12T11:17:40;13.20;;;11.90;;
3541;SDS011;1785;47.388;8.538;2023-09-12T11:20:07;15.93;;;11.37;;
3541;SDS011;1785;47.388;8.538;2023-09-12T11:22:36;13.40;;;12.00;;
3541;SDS011;1785;47.388;8.538;2023-09-12T11:25:04;15.37;;;11.47;;
3541;SDS011;1785;47.388;8.538;2023-09-12T11:27:43;13.20;;;11.80;;
3541;SDS011;1785;47.388;8.538;2023-09-12T11:30:11;12.00;;;10.83;;
3541;SDS011;1785;47.388;8.538;2023-09-12T11:32:38;12.40;;;11.03;;
3541;SDS011;1785;47.388;8.538;2023-09-12T11:35:04;11.40;;;10.30;;
3541;SDS011;1785;47.388;8.538;2023-09-12T11:37:32;14.70;;;12.10;;
3541;SDS011;1785;47.388;8.538;2023-09-12T11:40:00;11.37;;;10.30;;
3541;SDS011;1785;47.388;8.538;2023-09-12T11:42:26;13.80;;;11.53;;
3541;SDS011;1785;47.388;8.538;2023-09-12T11:44:53;11.85;;;10.57;;
3541;SDS011;1785;47.388;8.538;2023-09-12T11:47:19;11.10;;;9.50;;
3541;SDS011;1785;47.388;8.538;2023-09-12T11:49:45;11.23;;;10.17;;
3541;SDS011;1785;47.388;8.538;2023-09-12T11:52:13;14.67;;;11.10;;
3541;SDS011;1785;47.388;8.538;2023-09-12T11:54:42;11.57;;;10.57;;
3541;SDS011;1785;47.388;8.538;2023-09-12T11:57:09;11.13;;;9.90;;
3541;SDS011;1785;47.388;8.538;2023-09-12T11:59:37;11.57;;;10.43;;
3541;SDS011;1785;47.388;8.538;2023-09-12T12:02:05;11.23;;;9.97;;
3541;SDS011;1785;47.388;8.538;2023-09-12T12:04:32;12.17;;;11.00;;
3541;SDS011;1785;47.388;8.538;2023-09-12T12:06:59;11.10;;;10.03;;
3541;SDS011;1785;47.388;8.538;2023-09-12T12:09:26;11.57;;;10.37;;
3541;SDS011;1785;47.388;8.538;2023-09-12T12:11:53;10.13;;;9.23;;
3541;SDS011;1785;47.388;8.538;2023-09-12T12:14:19;10.53;;;9.53;;
3541;SDS011;1785;47.388;8.538;2023-09-12T12:16:46;10.17;;;9.27;;
3541;SDS011;1785;47.388;8.538;2023-09-12T12:19:12;11.77;;;10.23;;
3541;SDS011;1785;47.388;8.538;2023-09-12T12:21:39;12.17;;;10.27;;
3541;SDS011;1785;47.388;8.538;2023-09-12T12:24:07;10.60;;;9.20;;
3541;SDS011;1785;47.388;8.538;2023-09-12T12:26:35;12.80;;;10.30;;
3541;SDS011;1785;47.388;8.538;2023-09-12T12:29:02;10.27;;;9.27;;
3541;SDS011;1785;47.388;8.538;2023-09-12T12:31:30;9.83;;;8.77;;
3541;SDS011;1785;47.388;8.538;2023-09-12T12:33:57;12.13;;;9.43;;
3541;SDS011;1785;47.388;8.538;2023-09-12T12:36:24;10.20;;;9.10;;
3541;SDS011;1785;47.388;8.538;2023-09-12T12:38:51;11.03;;;8.13;;
3541;SDS011;1785;47.388;8.538;2023-09-12T12:41:21;9.23;;;8.43;;
3541;SDS011;1785;47.388;8.538;2023-09-12T12:43:49;11.63;;;9.50;;
3541;SDS011;1785;47.388;8.538;2023-09-12T12:46:17;10.70;;;9.70;;
3541;SDS011;1785;47.388;8.538;2023-09-12T12:48:44;14.97;;;10.07;;
3541;SDS011;1785;47.388;8.538;2023-09-12T12:51:14;10.37;;;8.60;;
3541;SDS011;1785;47.388;8.538;2023-09-12T12:53:42;11.77;;;9.97;;
3541;SDS011;1785;47.388;8.538;2023-09-12T12:56:11;10.23;;;9.33;;
3541;SDS011;1785;47.388;8.538;2023-09-12T12:58:38;11.60;;;9.37;;
3541;SDS011;1785;47.388;8.538;2023-09-12T13:01:10;10.17;;;9.10;;
3541;SDS011;1785;47.388;8.538;2023-09-12T13:03:36;13.33;;;10.03;;
3541;SDS011;1785;47.388;8.538;2023-09-12T13:06:03;13.37;;;9.80;;
3541;SDS011;1785;47.388;8.538;2023-09-12T13:08:29;9.93;;;8.97;;
3541;SDS011;1785;47.388;8.538;2023-09-12T13:10:55;11.50;;;10.40;;
3541;SDS011;1785;47.388;8.538;2023-09-12T13:13:24;10.77;;;9.87;;
3541;SDS011;1785;47.388;8.538;2023-09-12T13:15:50;10.70;;;9.80;;
3541;SDS011;1785;47.388;8.538;2023-09-12T13:18:17;12.50;;;10.23;;
3541;SDS011;1785;47.388;8.538;2023-09-12T13:20:44;14.80;;;9.83;;
3541;SDS011;1785;47.388;8.538;2023-09-12T13:23:10;13.13;;;10.67;;
3541;SDS011;1785;47.388;8.538;2023-09-12T13:25:36;12.98;;;10.00;;
3541;SDS011;1785;47.388;8.538;2023-09-12T13:28:02;13.73;;;11.90;;
3541;SDS011;1785;47.388;8.538;2023-09-12T13:30:28;14.23;;;10.63;;
3541;SDS011;1785;47.388;8.538;2023-09-12T13:32:54;16.93;;;12.00;;
3541;SDS011;1785;47.388;8.538;2023-09-12T13:35:20;11.50;;;10.40;;
3541;SDS011;1785;47.388;8.538;2023-09-12T13:37:47;10.57;;;9.47;;
3541;SDS011;1785;47.388;8.538;2023-09-12T13:40:13;12.13;;;10.67;;
3541;SDS011;1785;47.388;8.538;2023-09-12T13:42:39;11.23;;;9.20;;
3541;SDS011;1785;47.388;8.538;2023-09-12T13:45:06;10.77;;;9.57;;
3541;SDS011;1785;47.388;8.538;2023-09-12T13:47:33;11.00;;;10.00;;
3541;SDS011;1785;47.388;8.538;2023-09-12T13:49:59;12.67;;;9.67;;
3541;SDS011;1785;47.388;8.538;2023-09-12T13:52:26;12.67;;;9.73;;
3541;SDS011;1785;47.388;8.538;2023-09-12T13:54:53;13.60;;;9.40;;
3541;SDS011;1785;47.388;8.538;2023-09-12T13:57:19;9.93;;;8.93;;
3541;SDS011;1785;47.388;8.538;2023-09-12T13:59:45;9.93;;;9.00;;
3541;SDS011;1785;47.388;8.538;2023-09-12T14:02:11;10.47;;;8.77;;
3541;SDS011;1785;47.388;8.538;2023-09-12T14:04:37;12.60;;;9.60;;
3541;SDS011;1785;47.388;8.538;2023-09-12T14:07:05;14.70;;;11.40;;
3541;SDS011;1785;47.388;8.538;2023-09-12T14:09:31;12.10;;;9.77;;
3541;SDS011;1785;47.388;8.538;2023-09-12T14:11:58;12.47;;;11.37;;
3541;SDS011;1785;47.388;8.538;2023-09-12T14:14:24;12.60;;;10.93;;
3541;SDS011;1785;47.388;8.538;2023-09-12T14:16:50;13.25;;;12.05;;
3541;SDS011;1785;47.388;8.538;2023-09-12T14:19:16;14.10;;;12.40;;
3541;SDS011;1785;47.388;8.538;2023-09-12T14:21:43;18.30;;;12.40;;
3541;SDS011;1785;47.388;8.538;2023-09-12T14:24:09;15.83;;;11.83;;
3541;SDS011;1785;47.388;8.538;2023-09-12T14:26:35;15.57;;;12.53;;
3541;SDS011;1785;47.388;8.538;2023-09-12T14:29:02;13.00;;;10.10;;
3541;SDS011;1785;47.388;8.538;2023-09-12T14:31:28;12.17;;;10.60;;
3541;SDS011;1785;47.388;8.538;2023-09-12T14:33:54;9.83;;;8.97;;
3541;SDS011;1785;47.388;8.538;2023-09-12T14:36:20;9.27;;;8.33;;
3541;SDS011;1785;47.388;8.538;2023-09-12T14:38:47;10.43;;;7.90;;
3541;SDS011;1785;47.388;8.538;2023-09-12T14:41:13;6.83;;;5.83;;
3541;SDS011;1785;47.388;8.538;2023-09-12T14:43:42;8.57;;;5.57;;
3541;SDS011;1785;47.388;8.538;2023-09-12T14:46:09;5.37;;;4.87;;
3541;SDS011;1785;47.388;8.538;2023-09-12T14:48:35;4.37;;;3.80;;
3541;SDS011;1785;47.388;8.538;2023-09-12T14:51:01;6.77;;;3.93;;
3541;SDS011;1785;47.388;8.538;2023-09-12T14:53:28;6.90;;;4.10;;